createdAt,value
2023-04-18T00:00:52.543Z,0.00
2023-04-18T00:01:52.715Z,0.00
2023-04-18T00:02:52.887Z,0.00
2023-04-18T00:03:52.852Z,0.00
2023-04-18T00:04:52.820Z,0.00
2023-04-18T00:05:52.752Z,0.00
2023-04-18T00:06:52.744Z,0.00
2023-04-18T00:07:52.811Z,0.00
2023-04-18T00:08:52.787Z,19.04
2023-04-18T00:09:52.817Z,25.21
2023-04-18T00:10:52.807Z,25.00
2023-04-18T00:11:52.818Z,25.00
2023-04-18T00:12:52.832Z,25.00
2023-04-18T00:13:52.840Z,25.00
2023-04-18T00:14:52.844Z,27.40
2023-04-18T00:15:52.843Z,25.17
2023-04-18T00:16:52.891Z,25.00
2023-04-18T00:17:52.937Z,25.37
2023-04-18T00:18:52.865Z,27.09
2023-04-18T00:19:52.869Z,25.45
2023-04-18T00:20:52.878Z,25.00
2023-04-18T00:21:52.889Z,26.05
2023-04-18T00:22:52.893Z,26.67
2023-04-18T00:23:52.910Z,25.55
2023-04-18T00:24:52.927Z,28.10
2023-04-18T00:25:52.412Z,25.06
2023-04-18T00:26:52.927Z,29.12
2023-04-18T00:27:52.946Z,27.43
2023-04-18T00:28:52.965Z,25.18
2023-04-18T00:29:52.986Z,25.13
2023-04-18T00:30:53.026Z,27.23
2023-04-18T00:31:52.994Z,27.64
2023-04-18T00:32:53.006Z,26.01
2023-04-18T00:33:53.015Z,28.78
2023-04-18T00:34:53.026Z,29.07
2023-04-18T00:35:53.018Z,25.80
2023-04-18T00:36:53.029Z,26.52
2023-04-18T00:37:53.040Z,28.82
2023-04-18T00:38:53.042Z,27.14
2023-04-18T00:39:53.081Z,26.68
2023-04-18T00:40:53.051Z,25.51
2023-04-18T00:41:53.083Z,26.56
2023-04-18T00:42:53.109Z,26.23
2023-04-18T00:43:53.071Z,29.37
2023-04-18T00:44:53.077Z,28.90
2023-04-18T00:45:53.139Z,30.22
2023-04-18T00:46:53.118Z,29.23
2023-04-18T00:47:53.150Z,26.79
2023-04-18T00:48:53.113Z,26.60
2023-04-18T00:49:53.102Z,27.00
2023-04-18T00:50:53.103Z,27.78
2023-04-18T00:51:53.120Z,25.34
2023-04-18T00:52:53.114Z,26.71
2023-04-18T00:53:53.138Z,26.80
2023-04-18T00:54:53.142Z,27.21
2023-04-18T00:55:53.175Z,27.39
2023-04-18T00:56:53.151Z,27.57
2023-04-18T00:57:53.184Z,28.25
2023-04-18T00:58:53.166Z,27.81
2023-04-18T00:59:53.193Z,27.17
2023-04-18T01:00:53.193Z,25.98
2023-04-18T01:01:53.452Z,28.79
2023-04-18T01:02:53.461Z,29.05
2023-04-18T01:03:53.307Z,30.38
2023-04-18T01:04:53.272Z,30.49
2023-04-18T01:05:53.252Z,27.72
2023-04-18T01:06:53.265Z,28.97
2023-04-18T01:07:53.275Z,28.94
2023-04-18T01:08:53.288Z,28.32
2023-04-18T01:09:53.294Z,27.60
2023-04-18T01:10:53.337Z,27.15
2023-04-18T01:11:53.315Z,27.14
2023-04-18T01:12:53.330Z,27.37
2023-04-18T01:13:53.351Z,26.31
2023-04-18T01:14:53.348Z,27.08
2023-04-18T01:15:53.368Z,29.64
2023-04-18T01:16:53.352Z,29.86
2023-04-18T01:17:53.434Z,29.02
2023-04-18T01:18:53.384Z,29.68
2023-04-18T01:19:53.395Z,30.71
2023-04-18T01:20:53.415Z,28.51
2023-04-18T01:21:53.420Z,27.82
2023-04-18T01:22:53.439Z,26.89
2023-04-18T01:23:53.444Z,28.51
2023-04-18T01:24:53.446Z,30.86
2023-04-18T01:25:53.465Z,28.74
2023-04-18T01:26:53.485Z,29.48
2023-04-18T01:27:53.491Z,28.80
2023-04-18T01:28:53.502Z,30.18
2023-04-18T01:29:53.552Z,30.49
2023-04-18T01:30:53.540Z,29.01
2023-04-18T01:31:53.529Z,29.82
2023-04-18T01:32:53.589Z,29.03
2023-04-18T01:33:53.567Z,30.22
2023-04-18T01:34:53.564Z,30.09
2023-04-18T01:35:53.581Z,30.43
2023-04-18T01:36:53.588Z,31.21
2023-04-18T01:37:53.592Z,30.81
2023-04-18T01:38:53.607Z,29.75
2023-04-18T01:39:53.626Z,30.69
2023-04-18T01:40:53.626Z,29.94
2023-04-18T01:41:53.653Z,30.58
2023-04-18T01:42:53.643Z,28.18
2023-04-18T01:43:53.661Z,31.42
2023-04-18T01:44:53.661Z,26.03
2023-04-18T01:45:53.696Z,32.74
2023-04-18T01:46:53.807Z,32.51
2023-04-18T01:47:53.748Z,28.77
2023-04-18T01:48:53.696Z,32.47
2023-04-18T01:49:53.724Z,32.54
2023-04-18T01:50:53.716Z,32.34
2023-04-18T01:51:53.732Z,33.56
2023-04-18T01:52:53.710Z,33.63
2023-04-18T01:53:53.723Z,32.65
2023-04-18T01:54:53.718Z,33.16
2023-04-18T01:55:53.720Z,32.34
2023-04-18T01:56:53.733Z,33.03
2023-04-18T01:57:53.730Z,32.32
2023-04-18T01:58:53.743Z,27.33
2023-04-18T01:59:53.741Z,29.21
2023-04-18T02:00:53.785Z,32.29
2023-04-18T02:01:53.894Z,31.90
2023-04-18T02:02:53.870Z,31.22
2023-04-18T02:03:54.206Z,32.83
2023-04-18T02:04:53.780Z,30.53
2023-04-18T02:05:53.783Z,29.70
2023-04-18T02:06:53.793Z,29.85
2023-04-18T02:07:53.803Z,34.13
2023-04-18T02:08:53.790Z,30.60
2023-04-18T02:09:53.793Z,30.05
2023-04-18T02:10:53.806Z,29.54
2023-04-18T02:11:53.803Z,30.78
2023-04-18T02:12:53.805Z,28.19
2023-04-18T02:13:53.819Z,28.65
2023-04-18T02:14:53.812Z,31.33
2023-04-18T02:15:53.818Z,28.28
2023-04-18T02:16:53.864Z,28.36
2023-04-18T02:17:53.900Z,27.56
2023-04-18T02:18:53.819Z,29.40
2023-04-18T02:19:53.848Z,26.66
2023-04-18T02:20:53.831Z,32.13
2023-04-18T02:21:53.827Z,27.21
2023-04-18T02:22:53.817Z,30.91
2023-04-18T02:23:53.839Z,25.00
2023-04-18T02:24:53.832Z,31.81
2023-04-18T02:25:53.841Z,33.73
2023-04-18T02:26:53.861Z,32.96
2023-04-18T02:27:53.845Z,28.84
2023-04-18T02:28:53.848Z,32.89
2023-04-18T02:29:53.850Z,33.23
2023-04-18T02:30:53.843Z,29.96
2023-04-18T02:31:53.884Z,28.13
2023-04-18T02:32:53.891Z,29.43
2023-04-18T02:33:53.887Z,31.99
2023-04-18T02:34:53.852Z,32.67
2023-04-18T02:35:53.857Z,32.36
2023-04-18T02:36:53.865Z,36.59
2023-04-18T02:37:53.849Z,33.68
2023-04-18T02:38:53.860Z,34.05
2023-04-18T02:39:53.864Z,32.25
2023-04-18T02:40:53.866Z,31.43
2023-04-18T02:41:54.624Z,30.76
2023-04-18T02:42:53.874Z,25.49
2023-04-18T02:43:53.875Z,25.82
2023-04-18T02:44:53.877Z,33.22
2023-04-18T02:45:53.909Z,31.67
2023-04-18T02:46:53.866Z,30.55
2023-04-18T02:47:56.000Z,29.34
2023-04-18T02:48:54.616Z,31.42
2023-04-18T02:49:53.893Z,39.27
2023-04-18T02:50:53.856Z,36.46
2023-04-18T02:51:53.852Z,33.57
2023-04-18T02:52:53.917Z,33.25
2023-04-18T02:53:53.834Z,32.83
2023-04-18T02:54:53.823Z,29.06
2023-04-18T02:55:53.845Z,29.16
2023-04-18T02:56:54.843Z,28.53
2023-04-18T02:57:53.825Z,30.18
2023-04-18T02:58:53.800Z,30.73
2023-04-18T02:59:53.788Z,28.75
2023-04-18T03:00:53.834Z,28.06
2023-04-18T03:01:53.894Z,27.97
2023-04-18T03:02:53.921Z,31.49
2023-04-18T03:03:53.763Z,27.10
2023-04-18T03:04:53.813Z,27.63
2023-04-18T03:05:53.771Z,31.48
2023-04-18T03:06:53.742Z,27.07
2023-04-18T03:07:53.737Z,31.06
2023-04-18T03:08:53.723Z,28.21
2023-04-18T03:09:53.722Z,29.57
2023-04-18T03:10:55.736Z,33.51
2023-04-18T03:11:53.708Z,31.79
2023-04-18T03:12:53.694Z,32.53
2023-04-18T03:13:53.692Z,30.24
2023-04-18T03:14:53.680Z,29.18
2023-04-18T03:15:53.695Z,30.35
2023-04-18T03:16:55.393Z,30.11
2023-04-18T03:17:53.754Z,30.32
2023-04-18T03:18:53.648Z,30.74
2023-04-18T03:19:53.643Z,30.85
2023-04-18T03:20:53.655Z,29.82
2023-04-18T03:21:53.665Z,32.84
2023-04-18T03:22:53.638Z,23.84
2023-04-18T03:23:53.621Z,32.79
2023-04-18T03:24:53.605Z,32.29
2023-04-18T03:25:53.596Z,31.87
2023-04-18T03:26:53.605Z,34.52
2023-04-18T03:27:53.579Z,32.01
2023-04-18T03:28:53.574Z,32.02
2023-04-18T03:29:53.584Z,30.75
2023-04-18T03:30:53.617Z,31.70
2023-04-18T03:31:53.563Z,32.23
2023-04-18T03:32:53.627Z,30.93
2023-04-18T03:33:53.561Z,30.11
2023-04-18T03:34:53.537Z,30.86
2023-04-18T03:35:53.530Z,30.01
2023-04-18T03:36:52.518Z,32.99
2023-04-18T03:37:53.539Z,32.60
2023-04-18T03:38:53.505Z,30.50
2023-04-18T03:39:53.509Z,33.19
2023-04-18T03:40:53.491Z,31.84
2023-04-18T03:41:53.486Z,31.11
2023-04-18T03:42:53.471Z,29.81
2023-04-18T03:43:53.470Z,31.76
2023-04-18T03:44:53.470Z,29.95
2023-04-18T03:45:53.525Z,29.12
2023-04-18T03:46:53.441Z,32.72
2023-04-18T03:47:53.544Z,30.92
2023-04-18T03:48:53.433Z,31.46
2023-04-18T03:49:53.432Z,33.97
2023-04-18T03:50:53.426Z,27.36
2023-04-18T03:51:53.412Z,28.67
2023-04-18T03:52:53.413Z,30.52
2023-04-18T03:53:53.432Z,30.28
2023-04-18T03:54:53.419Z,28.88
2023-04-18T03:55:53.396Z,33.09
2023-04-18T03:56:53.391Z,30.91
2023-04-18T03:57:53.369Z,30.50
2023-04-18T03:58:53.387Z,28.78
2023-04-18T03:59:53.369Z,28.19
2023-04-18T04:00:53.351Z,32.16
2023-04-18T04:01:53.506Z,31.33
2023-04-18T04:02:53.517Z,29.87
2023-04-18T04:03:54.301Z,30.28
2023-04-18T04:04:53.385Z,34.63
2023-04-18T04:05:53.318Z,31.03
2023-04-18T04:06:53.314Z,28.61
2023-04-18T04:07:53.307Z,28.72
2023-04-18T04:08:53.330Z,30.75
2023-04-18T04:09:53.346Z,31.26
2023-04-18T04:10:54.154Z,29.64
2023-04-18T04:11:53.354Z,29.71
2023-04-18T04:12:53.350Z,29.83
2023-04-18T04:13:53.353Z,26.76
2023-04-18T04:14:53.370Z,29.38
2023-04-18T04:15:53.426Z,28.54
2023-04-18T04:16:53.425Z,30.47
2023-04-18T04:17:53.499Z,28.00
2023-04-18T04:18:53.393Z,30.28
2023-04-18T04:19:53.406Z,30.39
2023-04-18T04:20:53.440Z,30.83
2023-04-18T04:21:53.404Z,30.62
2023-04-18T04:22:53.417Z,31.61
2023-04-18T04:23:53.418Z,30.95
2023-04-18T04:24:53.431Z,29.71
2023-04-18T04:25:53.454Z,29.51
2023-04-18T04:26:53.434Z,31.52
2023-04-18T04:27:53.443Z,29.98
2023-04-18T04:28:53.445Z,30.67
2023-04-18T04:29:53.450Z,28.71
2023-04-18T04:30:53.454Z,29.43
2023-04-18T04:31:53.492Z,31.40
2023-04-18T04:32:53.500Z,29.90
2023-04-18T04:33:53.468Z,30.03
2023-04-18T04:34:53.475Z,30.45
2023-04-18T04:35:53.474Z,29.80
2023-04-18T04:36:53.476Z,30.66
2023-04-18T04:37:53.484Z,29.33
2023-04-18T04:38:53.493Z,29.59
2023-04-18T04:39:53.506Z,30.59
2023-04-18T04:40:53.514Z,31.03
2023-04-18T04:41:53.546Z,28.15
2023-04-18T04:42:53.541Z,26.26
2023-04-18T04:43:53.543Z,29.58
2023-04-18T04:44:53.618Z,31.42
2023-04-18T04:45:53.640Z,31.09
2023-04-18T04:46:53.580Z,29.52
2023-04-18T04:47:53.643Z,30.03
2023-04-18T04:48:53.602Z,29.76
2023-04-18T04:49:53.618Z,29.94
2023-04-18T04:50:53.656Z,28.46
2023-04-18T04:51:54.179Z,30.59
2023-04-18T04:52:56.161Z,31.36
2023-04-18T04:53:53.616Z,28.72
2023-04-18T04:54:53.621Z,36.38
2023-04-18T04:55:53.622Z,33.62
2023-04-18T04:56:53.607Z,32.48
2023-04-18T04:57:53.611Z,31.76
2023-04-18T04:58:53.583Z,32.58
2023-04-18T04:59:53.581Z,33.02
2023-04-18T05:00:53.629Z,29.31
2023-04-18T05:01:53.717Z,35.61
2023-04-18T05:02:53.766Z,32.45
2023-04-18T05:03:53.621Z,32.18
2023-04-18T05:04:53.556Z,32.22
2023-04-18T05:05:53.539Z,32.86
2023-04-18T05:06:53.533Z,33.32
2023-04-18T05:07:53.529Z,29.96
2023-04-18T05:08:53.511Z,30.39
2023-04-18T05:09:53.513Z,31.10
2023-04-18T05:10:53.491Z,31.20
2023-04-18T05:11:53.488Z,32.45
2023-04-18T05:12:53.493Z,31.64
2023-04-18T05:13:53.494Z,31.79
2023-04-18T05:14:53.480Z,29.61
2023-04-18T05:15:53.458Z,32.45
2023-04-18T05:16:53.486Z,32.02
2023-04-18T05:17:53.733Z,32.41
2023-04-18T05:18:53.440Z,30.22
2023-04-18T05:19:53.684Z,30.97
2023-04-18T05:20:53.427Z,30.57
2023-04-18T05:21:53.413Z,29.67
2023-04-18T05:22:53.441Z,30.22
2023-04-18T05:23:53.396Z,32.70
2023-04-18T05:24:53.680Z,29.57
2023-04-18T05:25:53.384Z,33.58
2023-04-18T05:26:53.392Z,32.34
2023-04-18T05:27:53.371Z,31.76
2023-04-18T05:28:53.371Z,31.40
2023-04-18T05:29:53.436Z,31.13
2023-04-18T05:30:53.705Z,31.37
2023-04-18T05:31:53.344Z,27.98
2023-04-18T05:32:53.372Z,31.44
2023-04-18T05:33:56.504Z,30.00
2023-04-18T05:34:53.332Z,30.28
2023-04-18T05:35:53.683Z,30.67
2023-04-18T05:36:53.314Z,31.38
2023-04-18T05:37:53.690Z,31.22
2023-04-18T05:38:53.297Z,35.23
2023-04-18T05:39:53.695Z,35.52
2023-04-18T05:40:53.282Z,34.04
2023-04-18T05:41:54.192Z,31.91
2023-04-18T05:42:53.279Z,35.54
2023-04-18T05:44:02.322Z,29.72
2023-04-18T05:44:56.495Z,30.36
2023-04-18T05:45:54.221Z,30.52
2023-04-18T05:46:53.253Z,30.43
2023-04-18T05:47:53.939Z,32.59
2023-04-18T05:48:53.691Z,33.13
2023-04-18T05:49:53.709Z,35.29
2023-04-18T05:50:53.237Z,36.59
2023-04-18T05:51:53.223Z,36.16
2023-04-18T05:52:53.235Z,35.45
2023-04-18T05:53:54.197Z,35.06
2023-04-18T05:54:53.213Z,34.25
2023-04-18T05:55:53.187Z,37.68
2023-04-18T05:56:53.212Z,34.24
2023-04-18T05:57:53.174Z,35.06
2023-04-18T05:58:53.220Z,30.17
2023-04-18T05:59:53.222Z,27.91
2023-04-18T06:00:53.210Z,34.17
2023-04-18T06:01:53.160Z,34.13
2023-04-18T06:02:53.374Z,35.55
2023-04-18T06:03:53.459Z,36.57
2023-04-18T06:04:53.265Z,35.91
2023-04-18T06:05:53.141Z,33.52
2023-04-18T06:06:53.122Z,35.67
2023-04-18T06:07:53.198Z,32.87
2023-04-18T06:08:53.105Z,35.21
2023-04-18T06:09:53.199Z,40.22
2023-04-18T06:10:53.082Z,38.17
2023-04-18T06:11:53.088Z,33.88
2023-04-18T06:12:53.075Z,35.63
2023-04-18T06:13:53.198Z,36.91
2023-04-18T06:14:53.692Z,36.96
2023-04-18T06:15:53.777Z,37.05
2023-04-18T06:16:53.488Z,35.39
2023-04-18T06:17:53.723Z,35.15
2023-04-18T06:18:53.542Z,34.89
2023-04-18T06:19:53.706Z,35.95
2023-04-18T06:20:53.680Z,36.18
2023-04-18T06:21:53.493Z,36.52
2023-04-18T06:22:53.640Z,34.62
2023-04-18T06:23:53.722Z,42.19
2023-04-18T06:24:53.651Z,37.62
2023-04-18T06:25:53.530Z,41.68
2023-04-18T06:26:53.860Z,39.59
2023-04-18T06:27:53.252Z,43.57
2023-04-18T06:28:53.664Z,41.60
2023-04-18T06:29:54.333Z,41.62
2023-04-18T06:30:53.472Z,42.40
2023-04-18T06:31:53.413Z,37.20
2023-04-18T06:32:53.737Z,41.49
2023-04-18T06:33:53.496Z,42.07
2023-04-18T06:34:53.328Z,36.98
2023-04-18T06:35:53.528Z,43.22
2023-04-18T06:36:53.511Z,37.86
2023-04-18T06:37:55.712Z,41.72
2023-04-18T06:38:53.710Z,41.81
2023-04-18T06:39:54.519Z,45.51
2023-04-18T06:40:53.511Z,44.55
2023-04-18T06:41:53.531Z,46.58
2023-04-18T06:42:53.508Z,47.35
2023-04-18T06:44:03.539Z,46.61
2023-04-18T06:44:53.482Z,46.97
2023-04-18T06:45:53.149Z,47.88
2023-04-18T06:46:53.529Z,48.38
2023-04-18T06:47:53.194Z,48.09
2023-04-18T06:48:53.195Z,49.30
2023-04-18T06:49:53.520Z,47.56
2023-04-18T06:50:53.067Z,44.56
2023-04-18T06:51:53.560Z,43.74
2023-04-18T06:52:53.555Z,46.41
2023-04-18T06:53:53.074Z,47.74
2023-04-18T06:54:53.541Z,43.64
2023-04-18T06:55:53.027Z,47.93
2023-04-18T06:56:53.023Z,47.37
2023-04-18T06:57:53.022Z,48.69
2023-04-18T06:58:53.540Z,46.33
2023-04-18T06:59:53.006Z,43.80
2023-04-18T07:00:53.547Z,45.13
2023-04-18T07:01:53.014Z,47.25
2023-04-18T07:02:53.103Z,48.38
2023-04-18T07:03:53.622Z,47.07
2023-04-18T07:04:53.073Z,49.76
2023-04-18T07:05:52.959Z,43.71
2023-04-18T07:06:52.947Z,44.05
2023-04-18T07:07:52.945Z,44.39
2023-04-18T07:08:54.541Z,40.68
2023-04-18T07:09:53.122Z,47.38
2023-04-18T07:10:53.097Z,48.78
2023-04-18T07:11:53.104Z,50.12
2023-04-18T07:12:53.093Z,47.66
2023-04-18T07:13:53.669Z,46.26
2023-04-18T07:14:53.098Z,51.38
2023-04-18T07:15:53.090Z,50.46
2023-04-18T07:16:53.158Z,45.96
2023-04-18T07:17:53.149Z,45.47
2023-04-18T07:18:53.095Z,41.95
2023-04-18T07:19:53.097Z,49.24
2023-04-18T07:20:53.158Z,49.43
2023-04-18T07:21:53.099Z,46.93
2023-04-18T07:22:53.094Z,44.39
2023-04-18T07:23:53.537Z,49.93
2023-04-18T07:24:54.075Z,45.66
2023-04-18T07:25:53.092Z,49.85
2023-04-18T07:26:54.914Z,47.61
2023-04-18T07:27:54.091Z,53.51
2023-04-18T07:28:53.543Z,53.62
2023-04-18T07:29:53.090Z,51.83
2023-04-18T07:30:53.124Z,53.95
2023-04-18T07:31:53.119Z,54.61
2023-04-18T07:32:53.599Z,49.35
2023-04-18T07:33:53.238Z,53.51
2023-04-18T07:34:53.152Z,52.88
2023-04-18T07:35:53.291Z,48.19
2023-04-18T07:36:53.201Z,51.53
2023-04-18T07:37:53.164Z,55.16
2023-04-18T07:38:53.224Z,47.24
2023-04-18T07:39:53.240Z,49.59
2023-04-18T07:40:53.185Z,54.41
2023-04-18T07:41:53.147Z,51.48
2023-04-18T07:42:53.280Z,54.66
2023-04-18T07:43:53.292Z,49.80
2023-04-18T07:44:53.146Z,55.13
2023-04-18T07:45:53.155Z,54.00
2023-04-18T07:46:53.160Z,45.27
2023-04-18T07:47:53.229Z,45.26
2023-04-18T07:48:53.236Z,44.15
2023-04-18T07:49:53.168Z,55.03
2023-04-18T07:50:53.241Z,49.88
2023-04-18T07:51:56.332Z,50.86
2023-04-18T07:52:53.134Z,50.92
2023-04-18T07:53:53.108Z,47.07
2023-04-18T07:54:53.273Z,53.31
2023-04-18T07:55:54.250Z,50.28
2023-04-18T07:56:53.077Z,55.24
2023-04-18T07:57:53.071Z,54.37
2023-04-18T07:58:53.069Z,55.48
2023-04-18T07:59:53.743Z,46.24
2023-04-18T08:00:53.260Z,50.96
2023-04-18T08:01:53.077Z,53.61
2023-04-18T08:02:53.132Z,47.55
2023-04-18T08:03:53.220Z,52.88
2023-04-18T08:04:53.263Z,48.94
2023-04-18T08:05:53.244Z,51.55
2023-04-18T08:06:53.018Z,55.65
2023-04-18T08:07:53.049Z,48.71
2023-04-18T08:08:53.242Z,52.14
2023-04-18T08:09:52.992Z,44.73
2023-04-18T08:10:52.986Z,51.98
2023-04-18T08:11:52.980Z,46.61
2023-04-18T08:12:52.964Z,47.98
2023-04-18T08:13:52.975Z,55.78
2023-04-18T08:14:53.752Z,46.85
2023-04-18T08:15:53.312Z,50.63
2023-04-18T08:16:52.935Z,54.89
2023-04-18T08:17:52.961Z,54.71
2023-04-18T08:18:52.930Z,62.66
2023-04-18T08:19:53.260Z,54.26
2023-04-18T08:20:52.902Z,48.03
2023-04-18T08:21:52.912Z,49.90
2023-04-18T08:23:06.028Z,52.11
2023-04-18T08:23:53.164Z,52.52
2023-04-18T08:25:04.363Z,53.78
2023-04-18T08:25:52.901Z,52.69
2023-04-18T08:26:53.100Z,54.16
2023-04-18T08:27:53.091Z,56.46
2023-04-18T08:28:52.875Z,60.17
2023-04-18T08:29:53.250Z,64.31
2023-04-18T08:30:52.838Z,64.41
2023-04-18T08:31:52.942Z,62.61
2023-04-18T08:32:52.866Z,63.49
2023-04-18T08:33:52.824Z,59.83
2023-04-18T08:34:53.256Z,64.00
2023-04-18T08:35:52.809Z,64.61
2023-04-18T08:36:52.781Z,56.66
2023-04-18T08:37:52.801Z,59.84
2023-04-18T08:38:52.777Z,63.48
2023-04-18T08:39:53.279Z,62.29
2023-04-18T08:40:53.763Z,54.28
2023-04-18T08:41:52.752Z,60.02
2023-04-18T08:42:52.767Z,57.61
2023-04-18T08:43:54.257Z,60.09
2023-04-18T08:44:52.767Z,61.99
2023-04-18T08:45:53.767Z,62.45
2023-04-18T08:46:52.713Z,70.06
2023-04-18T08:47:52.736Z,57.38
2023-04-18T08:48:52.699Z,64.66
2023-04-18T08:49:53.809Z,55.83
2023-04-18T08:50:52.691Z,53.19
2023-04-18T08:51:52.670Z,58.33
2023-04-18T08:52:52.672Z,60.06
2023-04-18T08:53:52.766Z,60.76
2023-04-18T08:54:52.696Z,59.84
2023-04-18T08:55:52.673Z,52.76
2023-04-18T08:56:52.676Z,51.49
2023-04-18T08:57:52.629Z,52.14
2023-04-18T08:58:52.774Z,53.54
2023-04-18T08:59:52.613Z,52.97
2023-04-18T09:00:52.655Z,63.71
2023-04-18T09:01:52.779Z,62.86
2023-04-18T09:02:52.862Z,62.71
2023-04-18T09:03:52.650Z,63.72
2023-04-18T09:04:52.749Z,60.48
2023-04-18T09:05:52.565Z,53.09
2023-04-18T09:06:52.607Z,58.03
2023-04-18T09:07:52.758Z,61.34
2023-04-18T09:08:52.682Z,62.66
2023-04-18T09:09:52.732Z,59.19
2023-04-18T09:10:52.779Z,64.21
2023-04-18T09:11:52.881Z,60.67
2023-04-18T09:12:53.271Z,57.98
2023-04-18T09:13:52.904Z,58.86
2023-04-18T09:14:52.961Z,62.09
2023-04-18T09:15:53.014Z,60.23
2023-04-18T09:16:53.063Z,56.48
2023-04-18T09:17:53.431Z,62.41
2023-04-18T09:18:53.134Z,63.67
2023-04-18T09:19:53.190Z,62.70
2023-04-18T09:20:53.250Z,65.18
2023-04-18T09:21:53.773Z,62.32
2023-04-18T09:22:53.365Z,55.53
2023-04-18T09:23:53.423Z,61.89
2023-04-18T09:24:53.502Z,67.47
2023-04-18T09:25:53.790Z,62.31
2023-04-18T09:26:53.829Z,77.18
2023-04-18T09:27:53.943Z,69.28
2023-04-18T09:28:54.015Z,66.06
2023-04-18T09:29:54.671Z,69.40
2023-04-18T09:30:53.767Z,73.80
2023-04-18T09:31:53.772Z,73.64
2023-04-18T09:32:57.860Z,63.79
2023-04-18T09:33:53.713Z,64.54
2023-04-18T09:34:53.715Z,64.26
2023-04-18T09:35:53.698Z,66.42
2023-04-18T09:36:53.870Z,64.69
2023-04-18T09:37:53.683Z,69.48
2023-04-18T09:38:56.190Z,66.80
2023-04-18T09:39:53.697Z,66.99
2023-04-18T09:40:53.783Z,67.52
2023-04-18T09:41:53.678Z,66.15
2023-04-18T09:42:53.669Z,64.93
2023-04-18T09:43:53.714Z,58.23
2023-04-18T09:44:56.403Z,63.06
2023-04-18T09:45:53.851Z,63.19
2023-04-18T09:46:53.646Z,57.26
2023-04-18T09:47:53.938Z,61.64
2023-04-18T09:48:53.624Z,62.76
2023-04-18T09:49:53.614Z,58.80
2023-04-18T09:50:53.621Z,46.94
2023-04-18T09:51:53.796Z,54.82
2023-04-18T09:52:56.622Z,51.14
2023-04-18T09:53:53.601Z,49.74
2023-04-18T09:54:53.579Z,51.44
2023-04-18T09:55:55.548Z,50.69
2023-04-18T09:56:53.566Z,51.34
2023-04-18T09:57:53.557Z,51.70
2023-04-18T09:58:53.555Z,40.64
2023-04-18T09:59:53.583Z,41.12
2023-04-18T10:00:53.803Z,41.00
2023-04-18T10:01:53.625Z,42.72
2023-04-18T10:02:54.410Z,38.83
2023-04-18T10:03:54.353Z,40.12
2023-04-18T10:04:53.691Z,45.49
2023-04-18T10:05:55.294Z,50.36
2023-04-18T10:06:53.570Z,57.10
2023-04-18T10:07:53.693Z,50.96
2023-04-18T10:08:53.556Z,54.68
2023-04-18T10:09:53.565Z,51.44
2023-04-18T10:10:54.303Z,61.42
2023-04-18T10:11:53.545Z,58.92
2023-04-18T10:12:53.531Z,59.86
2023-04-18T10:13:53.533Z,63.54
2023-04-18T10:14:53.794Z,56.77
2023-04-18T10:15:53.625Z,55.84
2023-04-18T10:16:53.515Z,65.53
2023-04-18T10:18:52.532Z,64.54
2023-04-18T10:19:53.506Z,63.16
2023-04-18T10:20:53.486Z,60.02
2023-04-18T10:21:53.511Z,59.73
2023-04-18T10:22:53.817Z,63.28
2023-04-18T10:23:53.496Z,65.20
2023-04-18T10:24:54.038Z,58.58
2023-04-18T10:25:53.515Z,67.12
2023-04-18T10:26:53.792Z,69.35
2023-04-18T10:27:53.511Z,64.63
2023-04-18T10:28:53.998Z,57.89
2023-04-18T10:29:53.637Z,61.14
2023-04-18T10:30:53.694Z,67.04
2023-04-18T10:31:53.959Z,68.67
2023-04-18T10:32:53.881Z,64.52
2023-04-18T10:34:04.130Z,65.69
2023-04-18T10:34:53.864Z,65.98
2023-04-18T10:35:53.877Z,66.03
2023-04-18T10:36:54.327Z,61.59
2023-04-18T10:37:54.141Z,64.19
2023-04-18T10:38:53.834Z,69.55
2023-04-18T10:39:53.827Z,65.37
2023-04-18T10:40:54.029Z,65.30
2023-04-18T10:41:54.397Z,65.67
2023-04-18T10:42:54.298Z,66.50
2023-04-18T10:43:53.827Z,63.22
2023-04-18T10:44:53.792Z,63.97
2023-04-18T10:45:53.795Z,67.20
2023-04-18T10:46:53.820Z,75.36
2023-04-18T10:47:53.859Z,67.76
2023-04-18T10:48:53.770Z,72.21
2023-04-18T10:49:54.121Z,72.70
2023-04-18T10:50:53.750Z,76.49
2023-04-18T10:51:53.824Z,70.41
2023-04-18T10:52:53.806Z,63.37
2023-04-18T10:53:53.847Z,54.05
2023-04-18T10:54:53.911Z,64.11
2023-04-18T10:55:54.323Z,57.87
2023-04-18T10:56:54.335Z,53.17
2023-04-18T10:57:54.305Z,54.24
2023-04-18T10:58:54.138Z,52.12
2023-04-18T10:59:54.195Z,56.03
2023-04-18T11:00:54.296Z,56.29
2023-04-18T11:01:54.872Z,59.43
2023-04-18T11:02:54.554Z,51.13
2023-04-18T11:03:55.229Z,57.17
2023-04-18T11:04:54.678Z,56.82
2023-04-18T11:05:55.165Z,54.71
2023-04-18T11:06:54.846Z,66.84
2023-04-18T11:07:54.744Z,60.44
2023-04-18T11:08:54.744Z,57.19
2023-04-18T11:09:54.836Z,58.38
2023-04-18T11:10:55.810Z,59.67
2023-04-18T11:11:55.312Z,59.17
2023-04-18T11:12:55.004Z,59.91
2023-04-18T11:13:55.013Z,55.43
2023-04-18T11:14:55.084Z,70.70
2023-04-18T11:15:55.113Z,60.77
2023-04-18T11:16:55.749Z,60.60
2023-04-18T11:17:55.684Z,56.83
2023-04-18T11:18:55.669Z,54.31
2023-04-18T11:19:55.865Z,66.64
2023-04-18T11:20:55.682Z,66.67
2023-04-18T11:21:55.815Z,57.38
2023-04-18T11:22:55.685Z,63.77
2023-04-18T11:23:56.687Z,69.97
2023-04-18T11:24:55.681Z,70.40
2023-04-18T11:25:55.702Z,75.99
2023-04-18T11:26:56.387Z,72.79
2023-04-18T11:27:55.819Z,67.49
2023-04-18T11:28:55.844Z,65.45
2023-04-18T11:29:55.929Z,67.25
2023-04-18T11:30:55.955Z,69.27
2023-04-18T11:31:58.601Z,60.71
2023-04-18T11:32:56.757Z,69.28
2023-04-18T11:33:56.000Z,63.37
2023-04-18T11:34:55.995Z,70.11
2023-04-18T11:35:56.013Z,67.02
2023-04-18T11:36:56.014Z,62.67
2023-04-18T11:37:56.328Z,63.58
2023-04-18T11:38:55.966Z,59.00
2023-04-18T11:39:55.965Z,64.28
2023-04-18T11:40:55.943Z,57.52
2023-04-18T11:41:56.321Z,67.49
2023-04-18T11:42:56.362Z,62.00
2023-04-18T11:43:55.932Z,67.36
2023-04-18T11:44:55.996Z,59.12
2023-04-18T11:45:56.215Z,60.14
2023-04-18T11:46:56.327Z,63.92
2023-04-18T11:47:56.196Z,56.64
2023-04-18T11:48:56.230Z,64.88
2023-04-18T11:49:57.087Z,64.25
2023-04-18T11:50:56.354Z,62.87
2023-04-18T11:51:56.875Z,56.79
2023-04-18T11:52:56.482Z,57.04
2023-04-18T11:53:56.518Z,54.25
2023-04-18T11:54:56.597Z,53.19
2023-04-18T11:55:56.639Z,62.56
2023-04-18T11:56:56.828Z,57.67
2023-04-18T11:57:56.751Z,54.33
2023-04-18T11:58:56.813Z,55.04
2023-04-18T11:59:56.879Z,52.87
2023-04-18T12:00:56.928Z,55.44
2023-04-18T12:01:58.838Z,52.45
2023-04-18T12:02:57.113Z,55.88
2023-04-18T12:03:57.168Z,58.84
2023-04-18T12:04:57.295Z,55.57
2023-04-18T12:05:57.043Z,57.25
2023-04-18T12:06:57.329Z,59.65
2023-04-18T12:07:56.989Z,58.97
2023-04-18T12:08:56.930Z,60.98
2023-04-18T12:09:56.930Z,53.63
2023-04-18T12:10:56.916Z,58.58
2023-04-18T12:11:57.338Z,57.62
2023-04-18T12:12:56.911Z,56.95
2023-04-18T12:13:56.930Z,53.73
2023-04-18T12:14:56.890Z,61.10
2023-04-18T12:15:56.930Z,56.74
2023-04-18T12:16:57.330Z,54.41
2023-04-18T12:17:57.374Z,70.17
2023-04-18T12:18:57.334Z,61.88
2023-04-18T12:19:56.988Z,58.96
2023-04-18T12:20:57.046Z,60.35
2023-04-18T12:21:57.116Z,66.01
2023-04-18T12:22:57.339Z,65.25
2023-04-18T12:23:57.466Z,68.15
2023-04-18T12:24:57.872Z,64.28
2023-04-18T12:25:57.344Z,63.71
2023-04-18T12:26:58.154Z,71.29
2023-04-18T12:27:57.461Z,69.74
2023-04-18T12:28:57.514Z,62.86
2023-04-18T12:29:57.597Z,67.64
2023-04-18T12:30:57.739Z,61.58
2023-04-18T12:31:58.368Z,65.09
2023-04-18T12:32:57.901Z,68.12
2023-04-18T12:33:57.814Z,59.30
2023-04-18T12:34:57.871Z,74.05
2023-04-18T12:35:57.959Z,70.39
2023-04-18T12:36:58.346Z,63.79
2023-04-18T12:37:58.355Z,63.21
2023-04-18T12:38:58.101Z,63.75
2023-04-18T12:39:58.183Z,68.70
2023-04-18T12:40:58.232Z,71.05
2023-04-18T12:41:58.341Z,63.14
2023-04-18T12:42:58.323Z,66.44
2023-04-18T12:43:58.394Z,70.73
2023-04-18T12:44:58.448Z,72.47
2023-04-18T12:45:58.504Z,66.68
2023-04-18T12:46:58.914Z,69.39
2023-04-18T12:47:58.667Z,67.99
2023-04-18T12:48:59.353Z,70.56
2023-04-18T12:49:58.754Z,76.58
2023-04-18T12:50:59.334Z,72.69
2023-04-18T12:51:58.870Z,62.43
2023-04-18T12:52:58.933Z,66.63
2023-04-18T12:53:59.363Z,69.24